createdAt,value
2022-08-31T00:02:14.505Z,7.90
2022-08-31T00:04:42.243Z,6.97
2022-08-31T00:07:09.292Z,6.75
2022-08-31T00:09:36.326Z,7.45
2022-08-31T00:12:03.636Z,6.80
2022-08-31T00:14:31.077Z,7.43
2022-08-31T00:16:58.539Z,8.30
2022-08-31T00:19:25.633Z,7.70
2022-08-31T00:21:52.808Z,7.97
2022-08-31T00:24:19.783Z,6.35
2022-08-31T00:26:47.096Z,7.63
2022-08-31T00:29:14.146Z,7.15
2022-08-31T00:31:41.407Z,6.18
2022-08-31T00:34:08.426Z,7.03
2022-08-31T00:36:35.751Z,6.20
2022-08-31T00:39:04.000Z,6.15
2022-08-31T00:41:31.358Z,6.93
2022-08-31T00:44:02.608Z,6.45
2022-08-31T00:46:38.206Z,6.07
2022-08-31T00:49:07.963Z,5.95
2022-08-31T00:51:44.972Z,5.65
2022-08-31T00:54:15.221Z,5.50
2022-08-31T00:56:44.898Z,5.63
2022-08-31T00:59:14.151Z,5.30
2022-08-31T01:01:41.376Z,5.20
2022-08-31T01:04:08.925Z,5.13
2022-08-31T01:06:36.589Z,5.97
2022-08-31T01:09:06.047Z,5.55
2022-08-31T01:11:34.563Z,5.95
2022-08-31T01:14:02.396Z,5.38
2022-08-31T01:16:44.599Z,5.65
2022-08-31T01:19:22.919Z,5.95
2022-08-31T01:22:13.930Z,5.75
2022-08-31T01:24:45.144Z,5.78
2022-08-31T01:27:13.992Z,5.85
2022-08-31T01:29:41.328Z,6.18
2022-08-31T01:32:09.045Z,5.85
2022-08-31T01:34:36.100Z,6.22
2022-08-31T01:37:03.294Z,5.85
2022-08-31T01:39:30.487Z,5.72
2022-08-31T01:41:58.912Z,5.47
2022-08-31T01:44:27.545Z,6.35
2022-08-31T01:46:55.425Z,5.72
2022-08-31T01:49:23.555Z,5.60
2022-08-31T01:51:52.029Z,6.15
2022-08-31T01:54:19.508Z,6.13
2022-08-31T01:56:48.643Z,5.97
2022-08-31T02:02:01.078Z,6.03
2022-08-31T02:04:29.383Z,6.28
2022-08-31T02:06:59.103Z,6.13
2022-08-31T02:09:26.490Z,5.95
2022-08-31T02:11:53.798Z,6.18
2022-08-31T02:14:21.834Z,6.47
2022-08-31T02:16:50.639Z,5.55
2022-08-31T02:19:18.287Z,6.18
2022-08-31T02:21:45.324Z,5.82
2022-08-31T02:24:12.576Z,5.60
2022-08-31T02:26:40.112Z,6.05
2022-08-31T02:29:08.100Z,5.78
2022-08-31T02:31:35.536Z,6.10
2022-08-31T02:34:03.181Z,5.85
2022-08-31T02:36:32.324Z,5.50
2022-08-31T02:39:03.977Z,5.28
2022-08-31T02:41:33.530Z,5.97
2022-08-31T02:44:00.492Z,5.72
2022-08-31T02:46:27.786Z,5.28
2022-08-31T02:49:21.665Z,5.60
2022-08-31T02:51:49.479Z,5.72
2022-08-31T02:54:17.007Z,5.28
2022-08-31T02:56:44.035Z,5.65
2022-08-31T02:59:11.279Z,5.13
2022-08-31T03:01:40.019Z,5.57
2022-08-31T03:04:07.228Z,5.78
2022-08-31T03:06:34.439Z,6.20
2022-08-31T03:09:02.655Z,5.25
2022-08-31T03:11:29.804Z,5.30
2022-08-31T03:13:58.838Z,5.57
2022-08-31T03:16:26.949Z,5.43
2022-08-31T03:18:54.314Z,4.80
2022-08-31T03:21:21.414Z,4.80
2022-08-31T03:23:48.400Z,6.30
2022-08-31T03:26:15.526Z,5.13
2022-08-31T03:28:42.550Z,4.70
2022-08-31T03:31:35.588Z,5.05
2022-08-31T03:34:03.378Z,5.13
2022-08-31T03:36:30.871Z,4.30
2022-08-31T03:38:57.926Z,4.75
2022-08-31T03:41:26.150Z,4.97
2022-08-31T03:43:53.361Z,4.60
2022-08-31T03:46:20.409Z,4.47
2022-08-31T03:48:47.527Z,4.60
2022-08-31T03:51:16.194Z,4.25
2022-08-31T03:53:43.490Z,4.50
2022-08-31T03:58:43.654Z,4.22
2022-08-31T04:01:14.054Z,3.90
2022-08-31T04:04:13.391Z,3.70
2022-08-31T04:06:49.519Z,4.20
2022-08-31T04:09:34.960Z,3.90
2022-08-31T04:12:02.046Z,3.85
2022-08-31T04:14:47.423Z,3.67
2022-08-31T04:17:33.563Z,4.57
2022-08-31T04:20:24.455Z,3.55
2022-08-31T04:22:56.727Z,3.78
2022-08-31T04:25:41.088Z,3.78
2022-08-31T04:28:09.180Z,3.58
2022-08-31T04:30:44.888Z,4.00
2022-08-31T04:33:16.186Z,3.95
2022-08-31T04:35:43.712Z,3.88
2022-08-31T04:38:11.235Z,4.53
2022-08-31T04:40:42.464Z,3.70
2022-08-31T04:43:10.685Z,3.80
2022-08-31T04:45:42.497Z,3.75
2022-08-31T04:48:13.066Z,4.45
2022-08-31T04:50:42.965Z,4.30
2022-08-31T04:53:10.362Z,3.95
2022-08-31T04:55:43.638Z,3.80
2022-08-31T04:58:13.083Z,4.72
2022-08-31T05:00:43.883Z,4.15
2022-08-31T05:03:44.007Z,3.78
2022-08-31T05:06:16.580Z,4.38
2022-08-31T05:08:44.361Z,4.10
2022-08-31T05:11:14.819Z,3.95
2022-08-31T05:13:42.288Z,3.90
2022-08-31T05:16:12.689Z,4.47
2022-08-31T05:18:41.632Z,4.00
2022-08-31T05:21:16.155Z,4.28
2022-08-31T05:23:45.712Z,4.72
2022-08-31T05:26:26.458Z,4.72
2022-08-31T05:28:55.136Z,4.05
2022-08-31T05:31:23.355Z,4.78
2022-08-31T05:33:51.740Z,5.20
2022-08-31T05:36:27.964Z,4.47
2022-08-31T05:39:00.287Z,4.22
2022-08-31T05:41:30.614Z,3.58
2022-08-31T05:43:57.981Z,3.80
2022-08-31T05:46:25.876Z,3.70
2022-08-31T05:48:52.924Z,4.28
2022-08-31T05:51:21.500Z,4.15
2022-08-31T05:53:49.356Z,4.10
2022-08-31T05:56:26.639Z,4.95
2022-08-31T05:58:56.667Z,4.32
2022-08-31T06:01:32.335Z,3.70
2022-08-31T06:04:03.110Z,3.90
2022-08-31T06:06:30.424Z,4.90
2022-08-31T06:08:58.307Z,4.05
2022-08-31T06:11:30.004Z,4.43
2022-08-31T06:13:59.976Z,4.40
2022-08-31T06:16:30.268Z,4.20
2022-08-31T06:18:59.565Z,3.88
2022-08-31T06:21:31.964Z,4.90
2022-08-31T06:24:00.158Z,4.03
2022-08-31T06:26:31.988Z,3.97
2022-08-31T06:29:02.478Z,4.00
2022-08-31T06:31:36.028Z,4.50
2022-08-31T06:34:07.192Z,4.03
2022-08-31T06:36:56.940Z,4.15
2022-08-31T06:39:45.065Z,4.40
2022-08-31T06:42:41.659Z,4.72
2022-08-31T06:45:27.548Z,4.93
2022-08-31T06:48:03.453Z,5.50
2022-08-31T06:50:30.627Z,6.95
2022-08-31T06:52:58.652Z,6.20
2022-08-31T06:55:49.004Z,4.90
2022-08-31T06:58:34.931Z,6.75
2022-08-31T07:01:18.757Z,5.65
2022-08-31T07:04:11.079Z,5.55
2022-08-31T07:06:44.059Z,5.60
2022-08-31T07:09:15.874Z,5.20
2022-08-31T07:11:49.045Z,5.40
2022-08-31T07:14:21.981Z,5.10
2022-08-31T07:16:50.673Z,5.40
2022-08-31T07:19:19.002Z,5.13
2022-08-31T07:21:52.043Z,5.05
2022-08-31T07:24:25.655Z,5.07
2022-08-31T07:26:59.352Z,10.38
2022-08-31T07:29:40.703Z,5.45
2022-08-31T07:32:14.286Z,5.03
2022-08-31T07:34:43.988Z,4.55
2022-08-31T07:37:52.854Z,4.75
2022-08-31T07:40:43.455Z,5.07
2022-08-31T07:43:13.214Z,4.68
2022-08-31T07:45:41.606Z,4.72
2022-08-31T07:48:09.848Z,5.20
2022-08-31T07:51:06.107Z,4.65
2022-08-31T07:53:45.065Z,3.42
2022-08-31T07:56:37.206Z,3.50
2022-08-31T07:59:14.246Z,3.75
2022-08-31T08:01:43.726Z,3.03
2022-08-31T08:04:15.523Z,3.70
2022-08-31T08:07:05.901Z,4.15
2022-08-31T08:09:55.896Z,3.58
2022-08-31T08:12:48.365Z,3.88
2022-08-31T08:15:25.791Z,3.88
2022-08-31T08:18:13.326Z,4.65
2022-08-31T08:20:48.027Z,5.10
2022-08-31T08:23:18.307Z,5.07
2022-08-31T08:26:21.580Z,4.25
2022-08-31T08:29:07.922Z,4.47
2022-08-31T08:31:41.912Z,4.13
2022-08-31T08:34:09.468Z,4.05
2022-08-31T08:36:39.606Z,3.42
2022-08-31T08:39:08.904Z,3.63
2022-08-31T08:41:40.380Z,4.25
2022-08-31T08:44:10.987Z,4.65
2022-08-31T08:46:52.935Z,4.50
2022-08-31T08:49:28.422Z,3.92
2022-08-31T08:52:10.656Z,5.47
2022-08-31T08:54:42.392Z,5.95
2022-08-31T08:57:15.148Z,5.78
2022-08-31T08:59:45.801Z,4.55
2022-08-31T09:02:24.066Z,5.35
2022-08-31T09:04:59.595Z,5.57
2022-08-31T09:08:19.635Z,5.10
2022-08-31T09:11:17.560Z,3.83
2022-08-31T09:14:22.229Z,3.97
2022-08-31T09:17:24.990Z,4.30
2022-08-31T09:20:05.753Z,4.67
2022-08-31T09:22:55.725Z,4.30
2022-08-31T09:25:34.707Z,4.07
2022-08-31T09:28:38.990Z,4.30
2022-08-31T09:31:06.109Z,4.50
2022-08-31T09:33:44.572Z,4.00
2022-08-31T09:36:22.633Z,3.90
2022-08-31T09:38:50.282Z,3.85
2022-08-31T09:41:28.877Z,4.28
2022-08-31T09:44:21.508Z,3.60
2022-08-31T09:46:51.841Z,4.55
2022-08-31T09:49:22.537Z,4.00
2022-08-31T09:51:49.691Z,4.03
2022-08-31T09:54:35.265Z,4.07
2022-08-31T09:57:05.641Z,3.60
2022-08-31T09:59:38.433Z,3.67
2022-08-31T10:04:46.129Z,3.58
2022-08-31T10:07:44.221Z,4.07
2022-08-31T10:10:30.068Z,3.30
2022-08-31T10:13:01.439Z,4.00
2022-08-31T10:15:36.002Z,4.18
2022-08-31T10:18:19.704Z,3.88
2022-08-31T10:20:56.054Z,4.10
2022-08-31T10:23:54.176Z,3.75
2022-08-31T10:26:34.066Z,3.90
2022-08-31T10:29:06.295Z,4.60
2022-08-31T10:31:36.980Z,5.05
2022-08-31T10:34:36.986Z,4.43
2022-08-31T10:37:12.632Z,4.70
2022-08-31T10:39:52.196Z,3.78
2022-08-31T10:42:25.856Z,4.18
2022-08-31T10:45:15.178Z,4.70
2022-08-31T10:47:49.101Z,5.20
2022-08-31T10:50:27.383Z,4.90
2022-08-31T10:53:13.645Z,4.90
2022-08-31T10:55:46.608Z,4.47
2022-08-31T10:58:24.491Z,4.65
2022-08-31T11:00:51.468Z,3.92
2022-08-31T11:03:26.108Z,5.88
2022-08-31T11:06:20.465Z,4.68
2022-08-31T11:09:05.757Z,4.45
2022-08-31T11:11:43.985Z,5.82
2022-08-31T11:14:29.870Z,4.50
2022-08-31T11:17:05.471Z,6.05
2022-08-31T11:19:56.190Z,6.18
2022-08-31T11:22:45.112Z,5.38
2022-08-31T11:25:17.881Z,5.97
2022-08-31T11:27:54.552Z,5.22
2022-08-31T11:30:27.281Z,4.70
2022-08-31T11:32:57.401Z,5.13
2022-08-31T11:36:06.477Z,4.70
2022-08-31T11:39:03.601Z,4.65
2022-08-31T11:41:34.720Z,4.75
2022-08-31T11:44:04.471Z,5.18
2022-08-31T11:46:34.317Z,4.80
2022-08-31T11:49:01.446Z,4.32
2022-08-31T11:51:41.150Z,4.93
2022-08-31T11:54:26.351Z,4.88
2022-08-31T11:56:57.004Z,4.97
2022-08-31T11:59:32.603Z,5.57
2022-08-31T12:02:21.388Z,4.90
2022-08-31T12:05:02.953Z,5.32
2022-08-31T12:07:42.476Z,4.90
2022-08-31T12:10:15.567Z,4.78
2022-08-31T12:12:57.740Z,4.90
2022-08-31T12:15:30.929Z,5.47
2022-08-31T12:18:46.202Z,4.90
2022-08-31T12:22:02.032Z,5.07
2022-08-31T12:25:05.245Z,4.57
2022-08-31T12:27:49.018Z,5.28
2022-08-31T12:30:21.585Z,3.67
2022-08-31T12:33:04.257Z,4.43
2022-08-31T12:35:33.113Z,5.35
2022-08-31T12:38:00.024Z,5.38
2022-08-31T12:40:33.676Z,3.88
2022-08-31T12:43:02.538Z,3.92
2022-08-31T12:45:56.742Z,4.45
2022-08-31T12:48:58.271Z,4.85
2022-08-31T12:52:02.761Z,5.30
2022-08-31T12:54:38.819Z,4.85
2022-08-31T12:57:43.675Z,5.00
2022-08-31T13:00:33.245Z,4.90
2022-08-31T13:03:21.944Z,5.18
2022-08-31T13:06:08.401Z,5.50
2022-08-31T13:08:44.660Z,5.60
2022-08-31T13:11:40.876Z,5.05
2022-08-31T13:14:23.011Z,4.47
2022-08-31T13:16:58.293Z,4.55
2022-08-31T13:19:31.000Z,5.32
2022-08-31T13:22:12.167Z,4.95
2022-08-31T13:24:41.833Z,4.97
2022-08-31T13:29:48.916Z,4.68
2022-08-31T13:32:25.305Z,4.80
2022-08-31T13:34:52.459Z,5.25
2022-08-31T13:37:30.705Z,4.75
2022-08-31T13:40:04.741Z,4.32
2022-08-31T13:42:41.329Z,5.00
2022-08-31T13:45:26.932Z,5.28
2022-08-31T13:47:59.097Z,4.10
2022-08-31T13:50:34.566Z,5.23
2022-08-31T13:53:25.869Z,5.53
2022-08-31T13:55:52.335Z,4.38
2022-08-31T13:58:32.789Z,5.03
2022-08-31T14:01:24.448Z,5.20
2022-08-31T14:03:59.597Z,4.55
2022-08-31T14:06:29.628Z,4.43
2022-08-31T14:09:03.581Z,4.57
2022-08-31T14:11:33.874Z,4.63
2022-08-31T14:14:08.277Z,4.50
2022-08-31T14:16:43.665Z,4.22
2022-08-31T14:19:38.729Z,4.53
2022-08-31T14:22:30.126Z,4.53
2022-08-31T14:24:57.394Z,3.72
2022-08-31T14:27:24.628Z,4.40
2022-08-31T14:29:52.291Z,5.25
2022-08-31T14:32:22.204Z,5.22
2022-08-31T14:34:51.175Z,5.32
2022-08-31T14:37:23.899Z,5.28
2022-08-31T14:40:05.655Z,4.90
2022-08-31T14:42:37.627Z,4.75
2022-08-31T14:45:18.605Z,4.30
2022-08-31T14:47:47.983Z,4.47
2022-08-31T14:50:21.490Z,4.57
2022-08-31T14:52:57.552Z,4.72
2022-08-31T14:55:27.246Z,4.20
2022-08-31T14:58:01.558Z,4.57
2022-08-31T15:00:31.869Z,4.40
2022-08-31T15:03:02.496Z,4.78
2022-08-31T15:05:29.586Z,5.47
2022-08-31T15:07:56.960Z,4.82
2022-08-31T15:10:25.911Z,4.93
2022-08-31T15:12:53.738Z,4.88
2022-08-31T15:15:21.391Z,5.25
2022-08-31T15:17:51.505Z,5.15
2022-08-31T15:20:21.010Z,4.80
2022-08-31T15:22:48.676Z,4.78
2022-08-31T15:25:17.059Z,4.65
2022-08-31T15:27:44.533Z,4.50
2022-08-31T15:30:17.969Z,5.50
2022-08-31T15:32:48.009Z,5.60
2022-08-31T15:35:19.048Z,4.80
2022-08-31T15:37:58.709Z,4.35
2022-08-31T15:40:27.967Z,4.80
2022-08-31T15:42:56.333Z,4.60
2022-08-31T15:45:27.982Z,3.97
2022-08-31T15:48:13.857Z,4.65
2022-08-31T15:50:51.092Z,4.20
2022-08-31T15:53:27.364Z,4.60
2022-08-31T15:55:54.378Z,4.93
2022-08-31T15:58:24.901Z,4.82
2022-08-31T16:00:52.406Z,4.82
2022-08-31T16:03:19.393Z,4.35
2022-08-31T16:05:46.490Z,5.32
2022-08-31T16:08:14.136Z,4.53
2022-08-31T16:10:46.730Z,4.65
2022-08-31T16:13:15.837Z,5.05
2022-08-31T16:15:51.621Z,4.80
2022-08-31T16:18:22.369Z,4.70
2022-08-31T16:20:50.528Z,4.75
2022-08-31T16:23:18.151Z,4.38
2022-08-31T16:25:48.589Z,4.07
2022-08-31T16:28:18.521Z,4.43
2022-08-31T16:30:45.714Z,3.35
2022-08-31T16:33:12.709Z,3.63
2022-08-31T16:35:39.759Z,3.55
2022-08-31T16:38:07.145Z,3.38
2022-08-31T16:40:35.449Z,3.40
2022-08-31T16:43:03.006Z,2.72
2022-08-31T16:45:30.088Z,2.63
2022-08-31T16:48:17.092Z,2.13
2022-08-31T16:50:48.576Z,2.25
2022-08-31T16:53:17.979Z,2.30
2022-08-31T16:55:47.459Z,2.10
2022-08-31T16:58:29.655Z,2.45
2022-08-31T17:01:03.684Z,2.80
2022-08-31T17:03:30.751Z,3.30
2022-08-31T17:05:57.788Z,3.05
2022-08-31T17:08:24.781Z,3.60
2022-08-31T17:10:51.788Z,3.65
2022-08-31T17:13:18.753Z,3.67
2022-08-31T17:15:45.802Z,3.47
2022-08-31T17:18:12.781Z,4.05
2022-08-31T17:20:40.860Z,4.18
2022-08-31T17:23:09.195Z,4.65
2022-08-31T17:25:37.115Z,5.35
2022-08-31T17:28:07.915Z,5.18
2022-08-31T17:30:35.235Z,5.72
2022-08-31T17:33:02.182Z,6.57
2022-08-31T17:35:32.011Z,6.32
2022-08-31T17:37:59.703Z,6.45
2022-08-31T17:40:27.518Z,6.00
2022-08-31T17:42:59.608Z,7.20
2022-08-31T17:45:27.156Z,6.78
2022-08-31T17:47:54.927Z,6.97
2022-08-31T17:50:22.083Z,6.40
2022-08-31T17:52:49.071Z,6.63
2022-08-31T17:55:16.445Z,5.28
2022-08-31T17:57:44.109Z,5.43
2022-08-31T18:00:14.524Z,6.78
2022-08-31T18:02:41.970Z,6.50
2022-08-31T18:05:12.079Z,7.18
2022-08-31T18:07:40.721Z,6.18
2022-08-31T18:10:08.972Z,5.57
2022-08-31T18:12:41.166Z,5.82
2022-08-31T18:15:14.457Z,5.90
2022-08-31T18:17:42.052Z,5.80
2022-08-31T18:20:10.613Z,5.85
2022-08-31T18:22:37.725Z,6.30
2022-08-31T18:25:05.117Z,5.60
2022-08-31T18:27:32.154Z,6.20
2022-08-31T18:30:00.902Z,6.47
2022-08-31T18:32:34.156Z,5.70
2022-08-31T18:35:01.157Z,5.80
2022-08-31T18:37:28.426Z,6.22
2022-08-31T18:40:13.863Z,6.85
2022-08-31T18:42:59.570Z,5.40
2022-08-31T18:45:27.801Z,5.72
2022-08-31T18:50:45.791Z,6.07
2022-08-31T18:53:28.818Z,5.25
2022-08-31T18:56:08.025Z,5.57
2022-08-31T18:58:35.815Z,5.10
2022-08-31T19:01:03.326Z,5.35
2022-08-31T19:03:30.606Z,5.60
2022-08-31T19:05:58.027Z,5.10
2022-08-31T19:08:26.410Z,5.68
2022-08-31T19:10:56.246Z,5.57
2022-08-31T19:13:26.265Z,5.95
2022-08-31T19:15:55.112Z,5.88
2022-08-31T19:18:25.038Z,5.80
2022-08-31T19:20:52.125Z,5.72
2022-08-31T19:23:20.294Z,5.95
2022-08-31T19:25:48.332Z,5.63
2022-08-31T19:28:15.359Z,5.40
2022-08-31T19:30:48.573Z,5.82
2022-08-31T19:33:16.266Z,5.47
2022-08-31T19:35:44.272Z,5.10
2022-08-31T19:38:12.025Z,5.78
2022-08-31T19:40:40.019Z,4.32
2022-08-31T19:45:54.416Z,4.95
2022-08-31T19:48:23.361Z,4.68
2022-08-31T19:50:51.586Z,4.40
2022-08-31T19:53:21.948Z,5.13
2022-08-31T19:55:53.430Z,5.32
2022-08-31T19:58:25.558Z,6.03
2022-08-31T20:01:04.300Z,5.85
2022-08-31T20:03:34.072Z,5.50
2022-08-31T20:06:27.584Z,5.38
2022-08-31T20:08:54.829Z,4.75
2022-08-31T20:11:26.560Z,4.68
2022-08-31T20:13:54.618Z,4.50
2022-08-31T20:16:22.240Z,4.75
2022-08-31T20:18:57.677Z,4.70
2022-08-31T20:21:27.534Z,4.45
2022-08-31T20:23:57.816Z,4.47
2022-08-31T20:26:36.062Z,4.45
2022-08-31T20:29:08.850Z,4.63
2022-08-31T20:31:42.206Z,4.95
2022-08-31T20:34:18.542Z,5.40
2022-08-31T20:36:49.251Z,4.43
2022-08-31T20:39:18.083Z,4.50
2022-08-31T20:41:47.957Z,4.65
2022-08-31T20:44:29.999Z,4.50
2022-08-31T20:47:18.350Z,5.00
2022-08-31T20:50:07.450Z,4.53
2022-08-31T20:52:35.491Z,4.88
2022-08-31T20:55:05.012Z,4.85
2022-08-31T20:57:34.344Z,5.18
2022-08-31T21:00:05.209Z,4.47
2022-08-31T21:02:34.163Z,4.28
2022-08-31T21:05:20.798Z,5.07
2022-08-31T21:07:49.357Z,4.60
2022-08-31T21:10:16.626Z,4.47
2022-08-31T21:12:53.255Z,4.38
2022-08-31T21:15:25.984Z,4.00
2022-08-31T21:17:57.063Z,4.28
2022-08-31T21:20:25.539Z,4.35
2022-08-31T21:22:53.576Z,4.63
2022-08-31T21:25:21.028Z,4.30
2022-08-31T21:27:48.017Z,4.30
2022-08-31T21:30:15.515Z,3.60
2022-08-31T21:32:42.586Z,4.13
2022-08-31T21:35:12.075Z,3.80
2022-08-31T21:37:40.359Z,3.95
2022-08-31T21:40:08.278Z,3.45
2022-08-31T21:42:35.262Z,4.40
2022-08-31T21:45:02.228Z,3.42
2022-08-31T21:47:29.254Z,3.05
2022-08-31T21:49:56.270Z,4.30
2022-08-31T21:52:24.892Z,3.28
2022-08-31T21:54:51.917Z,3.72
2022-08-31T21:57:18.992Z,3.40
2022-08-31T21:59:45.982Z,3.42
2022-08-31T22:02:13.982Z,3.30
2022-08-31T22:04:43.085Z,3.17
2022-08-31T22:07:14.135Z,3.20
2022-08-31T22:09:42.631Z,3.60
2022-08-31T22:12:12.853Z,3.53
2022-08-31T22:14:41.323Z,3.28
2022-08-31T22:17:09.512Z,3.88
2022-08-31T22:19:39.480Z,3.38
2022-08-31T22:22:11.834Z,3.22
2022-08-31T22:24:40.784Z,3.67
2022-08-31T22:27:10.274Z,2.90
2022-08-31T22:29:38.097Z,3.22
2022-08-31T22:32:10.016Z,3.25
2022-08-31T22:34:38.866Z,3.35
2022-08-31T22:37:06.533Z,3.28
2022-08-31T22:39:33.685Z,3.20
2022-08-31T22:42:04.937Z,3.10
2022-08-31T22:44:34.293Z,3.22
2022-08-31T22:47:01.848Z,3.15
2022-08-31T22:49:29.154Z,3.30
2022-08-31T22:51:57.681Z,3.15
2022-08-31T22:54:25.002Z,3.00
2022-08-31T22:56:52.885Z,3.40
2022-08-31T22:59:27.065Z,3.10
2022-08-31T23:02:03.426Z,3.40
2022-08-31T23:04:33.533Z,3.33
2022-08-31T23:07:03.644Z,2.90
2022-08-31T23:09:32.111Z,3.13
2022-08-31T23:12:01.173Z,2.80
2022-08-31T23:14:28.850Z,2.90
2022-08-31T23:16:58.947Z,3.22
2022-08-31T23:19:33.452Z,3.17
2022-08-31T23:22:01.992Z,3.20
2022-08-31T23:24:30.833Z,3.20
2022-08-31T23:27:04.214Z,3.30
2022-08-31T23:29:40.045Z,3.00
2022-08-31T23:32:12.118Z,3.50
2022-08-31T23:34:41.322Z,3.63
2022-08-31T23:37:10.479Z,3.40
2022-08-31T23:39:40.804Z,3.65
2022-08-31T23:42:09.238Z,3.35
2022-08-31T23:44:36.426Z,3.40
2022-08-31T23:47:03.391Z,3.10
2022-08-31T23:49:30.384Z,3.30
2022-08-31T23:51:57.319Z,3.38
2022-08-31T23:54:25.126Z,3.42
2022-08-31T23:56:56.900Z,3.05
2022-08-31T23:59:25.188Z,3.40
